createdAt,value
2022-09-03T00:01:48.509Z,14.6
2022-09-03T00:06:46.685Z,14.6
2022-09-03T00:11:44.753Z,14.6
2022-09-03T00:16:43.048Z,14.6
2022-09-03T00:21:41.260Z,14.6
2022-09-03T00:26:39.572Z,14.6
2022-09-03T00:31:38.073Z,14.6
2022-09-03T00:36:36.143Z,14.6
2022-09-03T00:41:34.411Z,14.5
2022-09-03T00:46:32.591Z,14.6
2022-09-03T00:51:30.619Z,14.5
2022-09-03T00:56:28.727Z,14.4
2022-09-03T01:01:27.019Z,14.6
2022-09-03T01:06:25.129Z,14.6
2022-09-03T01:11:23.073Z,14.5
2022-09-03T01:16:21.328Z,14.4
2022-09-03T01:21:19.392Z,14.3
2022-09-03T01:26:17.426Z,14.3
2022-09-03T01:31:15.764Z,14.3
2022-09-03T01:36:13.932Z,14.3
2022-09-03T01:41:12.133Z,14.3
2022-09-03T01:46:10.567Z,14.3
2022-09-03T01:51:08.548Z,14.2
2022-09-03T01:56:07.217Z,14.3
2022-09-03T02:01:05.374Z,14.2
2022-09-03T02:06:03.132Z,14.3
2022-09-03T02:11:01.286Z,14.4
2022-09-03T02:15:59.553Z,14.2
2022-09-03T02:20:57.976Z,14.4
2022-09-03T02:25:56.002Z,14.3
2022-09-03T02:30:54.273Z,14.3
2022-09-03T02:35:52.245Z,14.4
2022-09-03T02:40:50.392Z,14.3
2022-09-03T02:45:48.517Z,14.2
2022-09-03T02:50:46.521Z,14.2
2022-09-03T02:55:44.847Z,14.2
2022-09-03T03:00:43.124Z,14.3
2022-09-03T03:05:41.244Z,14.2
2022-09-03T03:10:39.379Z,14.2
2022-09-03T03:15:37.481Z,14.2
2022-09-03T03:20:35.800Z,14.2
2022-09-03T03:25:33.668Z,14.2
2022-09-03T03:30:31.642Z,14.1
2022-09-03T03:35:29.606Z,14.1
2022-09-03T03:40:27.650Z,14.1
2022-09-03T03:45:25.638Z,13.9
2022-09-03T03:50:23.869Z,14
2022-09-03T03:55:22.202Z,14
2022-09-03T04:00:20.301Z,14
2022-09-03T04:05:19.173Z,14.1
2022-09-03T04:10:16.994Z,14.2
2022-09-03T04:15:15.286Z,14.1
2022-09-03T04:20:13.622Z,14.3
2022-09-03T04:25:11.731Z,14.2
2022-09-03T04:30:10.008Z,14.2
2022-09-03T04:35:08.262Z,14.3
2022-09-03T04:40:06.432Z,14.4
2022-09-03T04:45:04.955Z,14.6
2022-09-03T04:50:03.600Z,14.7
2022-09-03T04:55:01.869Z,15
2022-09-03T05:00:00.284Z,14.9
2022-09-03T05:04:58.769Z,14.9
2022-09-03T05:09:57.072Z,15.2
2022-09-03T05:14:55.616Z,15.4
2022-09-03T05:19:53.944Z,15.5
2022-09-03T05:24:52.414Z,15.9
2022-09-03T05:29:50.912Z,16.3
2022-09-03T05:34:48.947Z,16.5
2022-09-03T05:39:47.427Z,16.6
2022-09-03T05:44:45.991Z,17.5
2022-09-03T05:49:44.583Z,18
2022-09-03T05:54:43.631Z,18.9
2022-09-03T05:59:43.255Z,20.5
2022-09-03T06:04:43.668Z,23.2
2022-09-03T06:09:45.335Z,24.5
2022-09-03T06:14:41.982Z,23.5
2022-09-03T06:19:39.349Z,22.4
2022-09-03T06:24:36.976Z,22.1
2022-09-03T06:29:34.441Z,21.8
2022-09-03T06:34:31.986Z,21.5
2022-09-03T06:39:30.141Z,21.1
2022-09-03T06:44:28.545Z,21.7
2022-09-03T06:49:27.407Z,22.2
2022-09-03T06:54:25.815Z,22.5
2022-09-03T06:59:24.085Z,22.4
2022-09-03T07:04:22.138Z,22.5
2022-09-03T07:09:20.776Z,23.1
2022-09-03T07:14:19.300Z,22.5
2022-09-03T07:19:16.806Z,22.4
2022-09-03T07:24:14.650Z,22.2
2022-09-03T07:29:12.918Z,22.7
2022-09-03T07:34:11.383Z,22.5
2022-09-03T07:39:09.798Z,23.3
2022-09-03T07:44:08.292Z,23.3
2022-09-03T07:49:06.978Z,23.9
2022-09-03T07:54:05.987Z,24.8
2022-09-03T07:59:06.768Z,27.5
2022-09-03T08:04:05.208Z,27.4
2022-09-03T08:09:05.764Z,28.9
2022-09-03T08:14:02.104Z,27.1
2022-09-03T08:18:59.771Z,26.8
2022-09-03T08:23:58.058Z,27.6
2022-09-03T08:28:56.462Z,27
2022-09-03T08:33:53.984Z,27.1
2022-09-03T08:38:57.624Z,34.5
2022-09-03T08:43:58.601Z,35.9
2022-09-03T08:48:57.791Z,37
2022-09-03T08:53:55.494Z,36.6
2022-09-03T08:58:51.013Z,34.5
2022-09-03T09:03:50.561Z,37
2022-09-03T09:08:49.667Z,37
2022-09-03T09:13:41.792Z,28.4
2022-09-03T09:18:41.531Z,35.7
2022-09-03T09:23:41.646Z,31.1
2022-09-03T09:28:36.677Z,30.5
2022-09-03T09:33:38.448Z,35.3
2022-09-03T09:38:32.541Z,29.7
2022-09-03T09:43:27.318Z,27.3
2022-09-03T09:48:29.521Z,33
2022-09-03T09:53:29.612Z,31.6
2022-09-03T09:58:23.556Z,31.4
2022-09-03T10:03:24.955Z,34.1
2022-09-03T10:08:24.456Z,35.3
2022-09-03T10:13:20.311Z,34.1
2022-09-03T10:18:21.270Z,32.3
2022-09-03T10:23:16.627Z,35
2022-09-03T10:28:13.889Z,31.2
2022-09-03T10:33:09.872Z,30.9
2022-09-03T10:38:07.319Z,29.9
2022-09-03T10:43:04.988Z,29.9
2022-09-03T10:48:05.002Z,34
2022-09-03T10:53:05.253Z,34.9
2022-09-03T10:58:03.325Z,36.3
2022-09-03T11:03:02.298Z,36.8
2022-09-03T11:08:00.114Z,31.9
2022-09-03T11:12:53.418Z,30.3
2022-09-03T11:17:56.628Z,36.6
2022-09-03T11:22:57.080Z,37.6
2022-09-03T11:27:56.653Z,38.5
2022-09-03T11:32:52.945Z,33.4
2022-09-03T11:37:44.019Z,27.3
2022-09-03T11:42:43.794Z,33.2
2022-09-03T11:47:45.611Z,33.2
2022-09-03T11:52:44.731Z,33.2
2022-09-03T11:57:38.976Z,31.6
2022-09-03T12:02:40.207Z,38.9
2022-09-03T12:07:38.917Z,38.3
2022-09-03T12:12:39.100Z,36.3
2022-09-03T12:17:31.433Z,29.8
2022-09-03T12:22:33.098Z,39.3
2022-09-03T12:27:33.435Z,39
2022-09-03T12:32:31.972Z,40.1
2022-09-03T12:42:29.581Z,36.3
2022-09-03T12:47:36.308Z,35.7
2022-09-03T12:52:23.888Z,31.1
2022-09-03T12:57:17.204Z,28
2022-09-03T13:02:19.128Z,34.5
2022-09-03T13:07:17.360Z,31.1
2022-09-03T13:12:15.427Z,30.3
2022-09-03T13:17:11.461Z,30
2022-09-03T13:22:09.614Z,28.3
2022-09-03T13:27:08.137Z,29.8
2022-09-03T13:32:06.310Z,29.3
2022-09-03T13:37:02.672Z,26.6
2022-09-03T13:42:00.047Z,26.5
2022-09-03T13:46:57.944Z,25.6
2022-09-03T13:51:55.442Z,25.5
2022-09-03T13:56:53.966Z,25.9
2022-09-03T14:01:51.493Z,25.1
2022-09-03T14:06:49.248Z,24.6
2022-09-03T14:11:47.223Z,23.6
2022-09-03T14:16:45.245Z,23.8
2022-09-03T14:21:43.333Z,24.3
2022-09-03T14:26:41.466Z,23.7
2022-09-03T14:31:39.554Z,23.5
2022-09-03T14:36:37.830Z,24.1
2022-09-03T14:41:36.265Z,24
2022-09-03T14:46:34.403Z,24.1
2022-09-03T14:51:32.476Z,24.3
2022-09-03T14:56:30.128Z,23.5
2022-09-03T15:01:27.686Z,22.6
2022-09-03T15:06:30.662Z,22.2
2022-09-03T15:11:23.043Z,22.1
2022-09-03T15:16:21.359Z,22.1
2022-09-03T15:21:19.784Z,22.5
2022-09-03T15:26:18.429Z,22.6
2022-09-03T15:31:16.359Z,22.2
2022-09-03T15:36:13.926Z,21.7
2022-09-03T15:41:11.717Z,21.6
2022-09-03T15:46:09.720Z,21.7
2022-09-03T15:51:07.529Z,21.2
2022-09-03T15:56:05.134Z,20.2
2022-09-03T16:01:02.999Z,19.9
2022-09-03T16:06:00.521Z,19.3
2022-09-03T16:10:58.526Z,18.6
2022-09-03T16:15:56.613Z,18.2
2022-09-03T16:20:54.588Z,18
2022-09-03T16:25:52.758Z,17.9
2022-09-03T16:30:50.723Z,17.6
2022-09-03T16:35:48.704Z,17.3
2022-09-03T16:40:46.774Z,17.1
2022-09-03T16:45:44.608Z,17
2022-09-03T16:50:42.662Z,16.6
2022-09-03T16:55:40.823Z,16.3
2022-09-03T17:00:39.327Z,16.1
2022-09-03T17:05:37.349Z,15.8
2022-09-03T17:10:35.394Z,15.7
2022-09-03T17:15:33.262Z,15.5
2022-09-03T17:20:31.142Z,15.4
2022-09-03T17:25:29.606Z,15.3
2022-09-03T17:30:27.816Z,15.4
2022-09-03T17:35:26.315Z,15.4
2022-09-03T17:40:24.393Z,15.3
2022-09-03T17:45:22.421Z,15
2022-09-03T17:50:20.400Z,14.9
2022-09-03T17:55:18.612Z,14.8
2022-09-03T18:00:16.838Z,14.7
2022-09-03T18:05:15.054Z,14.6
2022-09-03T18:10:13.034Z,14.4
2022-09-03T18:15:11.161Z,14.4
2022-09-03T18:20:09.343Z,14.1
2022-09-03T18:25:07.685Z,14.1
2022-09-03T18:30:06.310Z,13.9
2022-09-03T18:35:05.353Z,13.9
2022-09-03T18:40:03.727Z,13.7
2022-09-03T18:45:20.067Z,13.7
2022-09-03T18:50:00.139Z,13.6
2022-09-03T18:55:07.684Z,13.5
2022-09-03T18:59:56.373Z,13.5
2022-09-03T19:04:54.800Z,13.4
2022-09-03T19:09:52.929Z,13.4
2022-09-03T19:14:51.177Z,13.4
2022-09-03T19:19:49.433Z,13.5
2022-09-03T19:24:47.753Z,13.5
2022-09-03T19:29:46.095Z,13.5
2022-09-03T19:34:44.424Z,13.5
2022-09-03T19:39:42.634Z,13.4
2022-09-03T19:44:40.657Z,13.3
2022-09-03T19:49:38.588Z,13.2
2022-09-03T19:54:36.703Z,13.1
2022-09-03T19:59:34.706Z,13.1
2022-09-03T20:04:32.627Z,13
2022-09-03T20:09:30.810Z,12.9
2022-09-03T20:14:28.976Z,12.9
2022-09-03T20:19:27.270Z,12.9
2022-09-03T20:24:25.537Z,12.8
2022-09-03T20:29:23.571Z,12.7
2022-09-03T20:34:21.647Z,12.6
2022-09-03T20:39:19.616Z,12.6
2022-09-03T20:44:17.651Z,12.5
2022-09-03T20:49:15.718Z,12.4
2022-09-03T20:54:13.722Z,12.3
2022-09-03T20:59:11.649Z,12.2
2022-09-03T21:04:09.940Z,12.1
2022-09-03T21:09:08.014Z,12.1
2022-09-03T21:14:06.505Z,12.1
2022-09-03T21:19:04.385Z,12.1
2022-09-03T21:24:02.516Z,12.1
2022-09-03T21:29:00.584Z,11.9
2022-09-03T21:33:58.952Z,11.9
2022-09-03T21:38:57.337Z,12
2022-09-03T21:43:55.389Z,11.9
2022-09-03T21:48:53.576Z,11.8
2022-09-03T21:53:51.749Z,11.8
2022-09-03T21:58:50.026Z,11.7
2022-09-03T22:03:48.112Z,11.7
2022-09-03T22:08:46.062Z,11.7
2022-09-03T22:13:43.884Z,11.7
2022-09-03T22:18:41.789Z,11.7
2022-09-03T22:23:39.712Z,11.6
2022-09-03T22:28:37.988Z,11.5
2022-09-03T22:33:35.828Z,11.4
2022-09-03T22:38:33.862Z,11.3
2022-09-03T22:43:31.831Z,11.3
2022-09-03T22:48:29.884Z,11.2
2022-09-03T22:53:28.107Z,11.3
2022-09-03T22:58:26.082Z,11.4
2022-09-03T23:03:24.090Z,11.4
2022-09-03T23:08:22.008Z,11.4
2022-09-03T23:13:20.043Z,11.3
2022-09-03T23:18:18.380Z,11.5
2022-09-03T23:23:16.448Z,11.5
2022-09-03T23:28:14.585Z,11.5
2022-09-03T23:33:12.617Z,11.6
2022-09-03T23:38:10.766Z,11.7
2022-09-03T23:43:08.994Z,11.9
2022-09-03T23:48:06.842Z,11.8
2022-09-03T23:53:08.772Z,11.5
2022-09-03T23:58:05.678Z,11.3
